LIRA/CIA METAR and TAF weather

Enter ICAO airport designator
Station Type Date Time Source
LIRA METAR 2022/01/29 12:20 UTC NOAA

LIRA 291220Z 03006KT 350V060 CAVOK 12/M04 Q1029


Station Type Date Time Source
LIRA Decoded METAR 2022/01/29 12:20 UTC NOAA

Roma / Ciampino, Italy (LIRA) 41-47N 012-35E 105M
Jan 29, 2022 - 07:20 AM EST / 2022.01.29 1220 UTC
Wind: from the NNE (030 degrees) at 7 MPH (6 KT) (direction variable):0
Visibility: greater than 7 mile(s):0
Temperature: 53 F (12 C)
Dew Point: 24 F (-4 C)
Relative Humidity: 32%
Pressure (altimeter): 30.39 in. Hg (1029 hPa)
ob: LIRA 291220Z 03006KT 350V060 CAVOK 12/M04 Q1029
cycle: 12

Station Type Date Time Source
LIRA TAF 2022/01/29 12:21 UTC NOAA

TAF LIRA 291100Z 2912/3012 02008KT 9999 FEW040

Example: see airport list